createdAt,value
2019-03-24T00:00:30.333Z,11.63
2019-03-24T00:03:00.022Z,11.40
2019-03-24T00:05:29.646Z,14.50
2019-03-24T00:07:59.401Z,13.20
2019-03-24T00:10:28.989Z,17.30
2019-03-24T00:12:58.606Z,11.00
2019-03-24T00:15:28.270Z,12.10
2019-03-24T00:17:57.950Z,16.77
2019-03-24T00:20:27.565Z,12.63
2019-03-24T00:22:57.183Z,12.00
2019-03-24T00:25:26.800Z,12.77
2019-03-24T00:27:56.413Z,13.07
2019-03-24T00:30:26.002Z,16.33
2019-03-24T00:32:55.629Z,13.47
2019-03-24T00:35:25.217Z,19.60
2019-03-24T00:37:54.807Z,15.93
2019-03-24T00:40:24.798Z,13.43
2019-03-24T00:42:54.538Z,11.07
2019-03-24T00:45:24.145Z,13.13
2019-03-24T00:47:53.767Z,12.77
2019-03-24T00:50:23.352Z,12.20
2019-03-24T00:52:52.942Z,11.83
2019-03-24T00:55:22.556Z,11.20
2019-03-24T00:57:52.147Z,12.20
2019-03-24T01:00:31.925Z,12.07
2019-03-24T01:03:01.517Z,12.53
2019-03-24T01:05:31.146Z,17.00
2019-03-24T01:08:00.834Z,11.90
2019-03-24T01:10:30.432Z,12.67
2019-03-24T01:13:00.051Z,11.97
2019-03-24T01:15:29.678Z,11.33
2019-03-24T01:17:59.356Z,12.27
2019-03-24T01:20:28.967Z,12.43
2019-03-24T01:22:58.585Z,20.30
2019-03-24T01:25:28.210Z,10.23
2019-03-24T01:27:57.805Z,10.80
2019-03-24T01:30:27.415Z,11.50
2019-03-24T01:32:57.024Z,9.33
2019-03-24T01:35:26.685Z,10.30
2019-03-24T01:37:56.302Z,13.53
2019-03-24T01:40:25.991Z,11.30
2019-03-24T01:42:55.759Z,10.43
2019-03-24T01:45:25.374Z,23.70
2019-03-24T01:47:55.073Z,10.97
2019-03-24T01:50:24.666Z,11.33
2019-03-24T01:52:54.268Z,11.23
2019-03-24T01:55:23.897Z,12.47
2019-03-24T01:57:53.486Z,11.30
2019-03-24T02:00:23.170Z,9.77
2019-03-24T02:02:52.786Z,14.27
2019-03-24T02:05:22.378Z,11.03
2019-03-24T02:07:52.062Z,11.50
2019-03-24T02:10:21.861Z,14.43
2019-03-24T02:12:51.548Z,11.57
2019-03-24T02:15:21.167Z,11.77
2019-03-24T02:17:50.757Z,11.00
2019-03-24T02:20:20.586Z,12.30
2019-03-24T02:22:50.171Z,9.13
2019-03-24T02:25:19.760Z,12.47
2019-03-24T02:27:49.378Z,13.23
2019-03-24T02:30:19.109Z,11.83
2019-03-24T02:32:48.706Z,9.93
2019-03-24T02:35:18.297Z,12.23
2019-03-24T02:37:47.913Z,9.83
2019-03-24T02:40:18.239Z,12.23
2019-03-24T02:42:47.850Z,9.20
2019-03-24T02:45:17.807Z,10.53
2019-03-24T02:47:47.400Z,15.77
2019-03-24T02:50:17.243Z,11.77
2019-03-24T02:52:46.805Z,10.10
2019-03-24T02:55:16.563Z,13.50
2019-03-24T02:57:47.097Z,11.47
2019-03-24T03:00:17.309Z,9.43
2019-03-24T03:02:46.885Z,11.57
2019-03-24T03:05:16.840Z,10.53
2019-03-24T03:07:46.459Z,13.60
2019-03-24T03:10:16.818Z,9.23
2019-03-24T03:12:47.752Z,8.27
2019-03-24T03:15:17.783Z,12.03
2019-03-24T03:17:47.401Z,10.53
2019-03-24T03:20:17.326Z,14.23
2019-03-24T03:22:46.944Z,9.30
2019-03-24T03:25:16.669Z,9.57
2019-03-24T03:27:46.285Z,13.70
2019-03-24T03:30:16.011Z,16.90
2019-03-24T03:32:45.630Z,9.93
2019-03-24T03:35:15.308Z,11.23
2019-03-24T03:37:44.946Z,12.70
2019-03-24T03:40:14.879Z,9.90
2019-03-24T03:42:44.930Z,12.10
2019-03-24T03:45:17.664Z,10.13
2019-03-24T03:47:47.258Z,12.43
2019-03-24T03:50:16.903Z,11.00
2019-03-24T03:52:46.499Z,12.77
2019-03-24T03:55:16.118Z,11.23
2019-03-24T03:57:45.730Z,9.30
2019-03-24T04:00:16.084Z,11.33
2019-03-24T04:02:45.646Z,8.80
2019-03-24T04:05:15.269Z,9.57
2019-03-24T04:07:44.865Z,14.13
2019-03-24T04:10:14.450Z,12.80
2019-03-24T04:12:44.073Z,11.07
2019-03-24T04:15:13.841Z,13.70
2019-03-24T04:17:43.430Z,8.87
2019-03-24T04:20:13.183Z,14.17
2019-03-24T04:22:43.066Z,9.73
2019-03-24T04:25:12.767Z,10.67
2019-03-24T04:27:42.385Z,9.83
2019-03-24T04:30:12.783Z,8.63
2019-03-24T04:32:42.398Z,8.13
2019-03-24T04:35:12.343Z,11.53
2019-03-24T04:37:41.926Z,8.80
2019-03-24T04:40:11.780Z,10.97
2019-03-24T04:42:41.369Z,13.70
2019-03-24T04:45:11.315Z,9.40
2019-03-24T04:47:40.910Z,12.20
2019-03-24T04:50:11.030Z,12.70
2019-03-24T04:52:40.620Z,10.10
2019-03-24T04:55:10.774Z,9.37
2019-03-24T04:57:40.361Z,9.67
2019-03-24T05:00:11.187Z,10.40
2019-03-24T05:02:40.802Z,12.63
2019-03-24T05:05:11.296Z,9.80
2019-03-24T05:07:42.025Z,10.37
2019-03-24T05:10:28.653Z,8.97
2019-03-24T05:12:58.407Z,9.40
2019-03-24T05:15:28.119Z,9.03
2019-03-24T05:17:57.706Z,12.17
2019-03-24T05:20:27.390Z,10.80
2019-03-24T05:22:57.012Z,10.83
2019-03-24T05:25:26.600Z,12.30
2019-03-24T05:27:56.219Z,9.77
2019-03-24T05:30:25.810Z,14.77
2019-03-24T05:32:55.397Z,10.33
2019-03-24T05:35:25.012Z,9.77
2019-03-24T05:37:54.683Z,9.33
2019-03-24T05:40:24.390Z,10.90
2019-03-24T05:42:53.995Z,9.80
2019-03-24T05:45:23.604Z,8.87
2019-03-24T05:47:53.313Z,11.60
2019-03-24T05:50:22.900Z,9.50
2019-03-24T05:52:52.491Z,15.77
2019-03-24T05:55:22.104Z,9.90
2019-03-24T05:57:51.693Z,9.23
2019-03-24T06:00:21.380Z,10.33
2019-03-24T06:02:50.996Z,9.63
2019-03-24T06:05:20.586Z,9.13
2019-03-24T06:07:50.204Z,9.13
2019-03-24T06:10:19.798Z,11.53
2019-03-24T06:12:49.464Z,9.80
2019-03-24T06:15:19.079Z,9.07
2019-03-24T06:17:48.698Z,9.73
2019-03-24T06:20:18.381Z,10.53
2019-03-24T06:22:47.990Z,12.70
2019-03-24T06:25:17.622Z,14.43
2019-03-24T06:27:47.217Z,16.00
2019-03-24T06:30:17.305Z,16.43
2019-03-24T06:32:46.921Z,13.60
2019-03-24T06:35:16.511Z,12.77
2019-03-24T06:37:46.135Z,12.47
2019-03-24T06:40:15.962Z,16.10
2019-03-24T06:42:45.555Z,20.30
2019-03-24T06:45:15.389Z,13.90
2019-03-24T06:47:44.995Z,9.83
2019-03-24T06:50:14.991Z,22.17
2019-03-24T06:52:44.614Z,18.50
2019-03-24T06:55:14.346Z,13.63
2019-03-24T06:57:43.967Z,17.10
2019-03-24T07:00:14.095Z,17.37
2019-03-24T07:02:43.721Z,13.47
2019-03-24T07:05:14.421Z,10.60
2019-03-24T07:07:44.039Z,9.27
2019-03-24T07:10:13.880Z,14.17
2019-03-24T07:12:43.506Z,11.07
2019-03-24T07:15:13.341Z,10.27
2019-03-24T07:17:42.978Z,13.67
2019-03-24T07:20:13.384Z,15.83
2019-03-24T07:22:42.980Z,14.63
2019-03-24T07:25:12.817Z,12.30
2019-03-24T07:27:42.411Z,16.60
2019-03-24T07:30:13.443Z,14.10
2019-03-24T07:32:43.071Z,12.63
2019-03-24T07:35:12.742Z,11.40
2019-03-24T07:37:42.416Z,16.03
2019-03-24T07:40:12.557Z,14.23
2019-03-24T07:42:42.180Z,14.93
2019-03-24T07:45:12.316Z,12.47
2019-03-24T07:47:41.945Z,14.97
2019-03-24T07:50:12.068Z,12.47
2019-03-24T07:52:41.663Z,11.33
2019-03-24T07:55:11.532Z,12.47
2019-03-24T07:57:41.156Z,12.50
2019-03-24T08:00:12.773Z,14.10
2019-03-24T08:02:51.825Z,11.27
2019-03-24T08:05:21.452Z,15.93
2019-03-24T08:07:51.048Z,11.83
2019-03-24T08:10:20.678Z,11.60
2019-03-24T08:12:50.369Z,13.07
2019-03-24T08:15:20.088Z,12.80
2019-03-24T08:17:49.676Z,11.00
2019-03-24T08:20:19.424Z,10.30
2019-03-24T08:22:49.019Z,10.43
2019-03-24T08:25:19.206Z,14.50
2019-03-24T08:27:48.826Z,9.03
2019-03-24T08:30:28.953Z,12.17
2019-03-24T08:32:58.619Z,9.00
2019-03-24T08:35:28.231Z,8.77
2019-03-24T08:37:57.925Z,9.97
2019-03-24T08:40:27.554Z,9.73
2019-03-24T08:42:57.239Z,8.43
2019-03-24T08:45:29.720Z,10.50
2019-03-24T08:48:00.050Z,8.40
2019-03-24T08:50:29.812Z,11.60
2019-03-24T08:52:59.566Z,8.30
2019-03-24T08:55:29.198Z,8.70
2019-03-24T08:57:58.791Z,17.50
2019-03-24T09:00:30.898Z,9.07
2019-03-24T09:02:59.732Z,16.57
2019-03-24T09:05:29.327Z,10.77
2019-03-24T09:07:58.947Z,10.43
2019-03-24T09:10:28.640Z,10.60
2019-03-24T09:12:58.234Z,10.00
2019-03-24T09:15:27.873Z,13.43
2019-03-24T09:17:57.472Z,15.20
2019-03-24T09:20:27.068Z,13.90
2019-03-24T09:22:56.693Z,12.47
2019-03-24T09:25:26.329Z,12.10
2019-03-24T09:27:55.991Z,19.23
2019-03-24T09:30:36.456Z,18.03
2019-03-24T09:33:06.586Z,14.77
2019-03-24T09:35:36.519Z,14.63
2019-03-24T09:38:06.530Z,14.00
2019-03-24T09:40:37.261Z,15.27
2019-03-24T09:43:07.276Z,15.67
2019-03-24T09:45:37.065Z,16.17
2019-03-24T09:48:07.023Z,16.97
2019-03-24T09:50:37.146Z,18.13
2019-03-24T09:53:06.948Z,15.60
2019-03-24T09:55:36.583Z,17.55
2019-03-24T09:58:06.422Z,19.10
2019-03-24T10:00:36.025Z,12.75
2019-03-24T10:03:06.003Z,15.07
2019-03-24T10:05:35.610Z,16.67
2019-03-24T10:08:05.633Z,15.85
2019-03-24T10:10:35.258Z,21.87
2019-03-24T10:13:04.952Z,19.48
2019-03-24T10:15:34.622Z,23.07
2019-03-24T10:18:04.288Z,18.20
2019-03-24T10:20:33.924Z,14.03
2019-03-24T10:23:03.592Z,21.20
2019-03-24T10:25:33.213Z,17.60
2019-03-24T10:28:02.844Z,17.00
2019-03-24T10:30:32.472Z,17.77
2019-03-24T10:33:02.173Z,16.95
2019-03-24T10:35:31.794Z,17.60
2019-03-24T10:38:01.393Z,16.70
2019-03-24T10:40:31.031Z,20.82
2019-03-24T10:43:00.744Z,16.52
2019-03-24T10:45:30.368Z,20.40
2019-03-24T10:47:59.967Z,16.30
2019-03-24T10:50:29.599Z,17.07
2019-03-24T10:52:59.195Z,17.85
2019-03-24T10:55:28.835Z,20.52
2019-03-24T10:57:58.440Z,19.87
2019-03-24T11:00:42.659Z,18.67
2019-03-24T11:03:12.350Z,17.40
2019-03-24T11:05:42.384Z,17.73
2019-03-24T11:08:12.157Z,18.15
2019-03-24T11:10:42.755Z,18.82
2019-03-24T11:13:12.354Z,17.12
2019-03-24T11:15:41.964Z,14.93
2019-03-24T11:18:11.610Z,13.68
2019-03-24T11:20:41.209Z,14.98
2019-03-24T11:23:11.948Z,15.48
2019-03-24T11:25:41.578Z,14.73
2019-03-24T11:28:11.264Z,14.35
2019-03-24T11:30:40.973Z,17.52
2019-03-24T11:33:10.639Z,13.43
2019-03-24T11:35:40.240Z,14.98
2019-03-24T11:38:09.874Z,13.45
2019-03-24T11:40:39.478Z,14.10
2019-03-24T11:43:09.099Z,18.35
2019-03-24T11:45:38.696Z,11.70
2019-03-24T11:48:08.354Z,16.00
2019-03-24T11:50:37.945Z,14.00
2019-03-24T11:53:07.652Z,14.68
2019-03-24T11:55:37.251Z,18.05
2019-03-24T11:58:06.994Z,10.95
2019-03-24T12:00:38.899Z,11.70
2019-03-24T12:03:08.635Z,11.95
2019-03-24T12:05:38.396Z,12.28
2019-03-24T12:08:08.257Z,11.57
2019-03-24T12:10:38.123Z,14.45
2019-03-24T12:13:07.753Z,13.35
2019-03-24T12:15:37.734Z,13.93
2019-03-24T12:18:07.398Z,22.02
2019-03-24T12:20:37.023Z,16.73
2019-03-24T12:23:06.696Z,12.98
2019-03-24T12:25:36.330Z,13.90
2019-03-24T12:28:06.097Z,11.55
2019-03-24T12:30:35.728Z,10.08
2019-03-24T12:33:05.459Z,12.53
2019-03-24T12:35:35.143Z,8.63
2019-03-24T12:38:05.250Z,11.25
2019-03-24T12:40:34.958Z,10.63
2019-03-24T12:43:04.826Z,12.15
2019-03-24T12:45:34.422Z,14.23
2019-03-24T12:48:04.149Z,10.93
2019-03-24T12:50:33.778Z,13.90
2019-03-24T12:53:03.547Z,11.18
2019-03-24T12:55:33.139Z,10.25
2019-03-24T12:58:02.749Z,13.13
2019-03-24T13:00:39.853Z,8.95
2019-03-24T13:03:09.898Z,11.80
2019-03-24T13:05:39.628Z,11.35
2019-03-24T13:08:14.615Z,9.93
2019-03-24T13:10:45.422Z,10.15
2019-03-24T13:13:15.182Z,13.50
2019-03-24T13:15:45.050Z,13.20
2019-03-24T13:18:14.747Z,15.72
2019-03-24T13:20:44.438Z,11.73
2019-03-24T13:23:14.218Z,11.12
2019-03-24T13:25:43.845Z,10.08
2019-03-24T13:28:13.450Z,8.25
2019-03-24T13:30:43.142Z,9.20
2019-03-24T13:33:12.835Z,10.28
2019-03-24T13:35:42.901Z,10.78
2019-03-24T13:38:12.536Z,14.25
2019-03-24T13:40:42.249Z,13.90
2019-03-24T13:43:11.877Z,11.25
2019-03-24T13:45:41.470Z,9.48
2019-03-24T13:48:11.343Z,9.95
2019-03-24T13:50:41.007Z,9.98
2019-03-24T13:53:10.643Z,10.53
2019-03-24T13:55:40.270Z,8.98
2019-03-24T13:58:11.967Z,15.10
2019-03-24T14:00:41.306Z,14.15
2019-03-24T14:03:10.985Z,24.70
2019-03-24T14:05:40.584Z,10.85
2019-03-24T14:08:10.285Z,10.58
2019-03-24T14:10:39.963Z,9.95
2019-03-24T14:13:09.591Z,7.83
2019-03-24T14:15:39.259Z,9.73
2019-03-24T14:18:08.958Z,9.73
2019-03-24T14:20:43.328Z,11.57
2019-03-24T14:23:09.882Z,8.63
2019-03-24T14:25:39.502Z,10.90
2019-03-24T14:28:09.096Z,7.97
2019-03-24T14:30:44.331Z,8.05
2019-03-24T14:33:14.486Z,9.30
2019-03-24T14:35:44.455Z,10.82
2019-03-24T14:38:14.257Z,7.60
2019-03-24T14:40:44.222Z,8.88
2019-03-24T14:43:13.959Z,12.68
2019-03-24T14:45:43.590Z,9.10
2019-03-24T14:48:13.235Z,8.85
2019-03-24T14:50:53.553Z,9.55
2019-03-24T14:53:14.262Z,9.03
2019-03-24T14:55:43.861Z,9.08
2019-03-24T14:58:13.614Z,8.73
2019-03-24T15:00:44.639Z,11.70
2019-03-24T15:03:14.304Z,7.67
2019-03-24T15:05:44.074Z,11.68
2019-03-24T15:08:13.894Z,10.90
2019-03-24T15:10:43.515Z,9.38
2019-03-24T15:13:13.140Z,11.35
2019-03-24T15:15:42.737Z,8.83
2019-03-24T15:18:12.338Z,10.30
2019-03-24T15:20:42.032Z,8.10
2019-03-24T15:23:11.637Z,16.42
2019-03-24T15:25:41.258Z,10.35
2019-03-24T15:28:10.876Z,8.90
2019-03-24T15:30:40.475Z,10.78
2019-03-24T15:33:10.105Z,9.55
2019-03-24T15:35:39.777Z,11.55
2019-03-24T15:38:09.501Z,12.53
2019-03-24T15:40:39.099Z,10.23
2019-03-24T15:43:08.720Z,13.70
2019-03-24T15:45:38.346Z,8.48
2019-03-24T15:48:07.945Z,10.58
2019-03-24T15:50:37.579Z,10.28
2019-03-24T15:53:07.187Z,14.43
2019-03-24T15:55:36.787Z,11.40
2019-03-24T15:58:06.415Z,11.12
2019-03-24T16:00:45.143Z,13.48
2019-03-24T16:03:14.790Z,9.13
2019-03-24T16:05:44.418Z,11.75
2019-03-24T16:08:14.187Z,10.95
2019-03-24T16:10:43.889Z,11.75
2019-03-24T16:13:13.488Z,10.93
2019-03-24T16:15:43.114Z,10.35
2019-03-24T16:18:12.924Z,8.40
2019-03-24T16:20:42.622Z,9.50
2019-03-24T16:23:12.212Z,9.90
2019-03-24T16:25:41.835Z,11.03
2019-03-24T16:28:11.476Z,10.82
2019-03-24T16:30:41.111Z,12.00
2019-03-24T16:33:10.798Z,7.50
2019-03-24T16:35:40.394Z,9.93
2019-03-24T16:38:10.014Z,8.83
2019-03-24T16:40:41.449Z,11.53
2019-03-24T16:43:11.039Z,10.03
2019-03-24T16:45:40.638Z,8.58
2019-03-24T16:48:10.281Z,9.80
2019-03-24T16:50:39.954Z,8.77
2019-03-24T16:53:09.580Z,7.87
2019-03-24T16:55:39.170Z,9.78
2019-03-24T16:58:09.539Z,10.07
2019-03-24T17:00:39.135Z,11.30
2019-03-24T17:03:08.757Z,29.73
2019-03-24T17:05:38.358Z,25.00
2019-03-24T17:08:08.053Z,26.10
2019-03-24T17:10:37.754Z,30.80
2019-03-24T17:13:07.379Z,29.10
2019-03-24T17:15:37.101Z,29.27
2019-03-24T17:18:07.109Z,23.40
2019-03-24T17:20:36.735Z,24.00
2019-03-24T17:23:06.577Z,25.70
2019-03-24T17:25:36.210Z,28.23
2019-03-24T17:28:06.737Z,26.10
2019-03-24T17:30:36.370Z,18.63
2019-03-24T17:33:06.214Z,19.63
2019-03-24T17:35:35.973Z,19.77
2019-03-24T17:38:05.868Z,17.33
2019-03-24T17:40:38.815Z,18.90
2019-03-24T17:43:07.158Z,15.67
2019-03-24T17:45:36.865Z,18.77
2019-03-24T17:48:06.805Z,26.30
2019-03-24T17:50:36.468Z,17.60
2019-03-24T17:53:06.979Z,14.60
2019-03-24T17:55:36.749Z,16.10
2019-03-24T17:58:06.640Z,21.27
2019-03-24T18:00:44.525Z,19.70
2019-03-24T18:03:14.385Z,26.37
2019-03-24T18:05:44.059Z,15.87
2019-03-24T18:08:13.791Z,22.80
2019-03-24T18:10:43.462Z,18.43
2019-03-24T18:13:13.090Z,20.80
2019-03-24T18:15:42.716Z,16.07
2019-03-24T18:18:12.432Z,16.57
2019-03-24T18:20:42.031Z,24.07
2019-03-24T18:23:11.655Z,28.77
2019-03-24T18:25:41.427Z,32.90
2019-03-24T18:28:11.167Z,33.50
2019-03-24T18:30:40.867Z,21.43
2019-03-24T18:33:10.496Z,19.70
2019-03-24T18:35:40.095Z,20.43
2019-03-24T18:38:09.900Z,21.43
2019-03-24T18:40:39.604Z,19.93
2019-03-24T18:43:09.305Z,18.97
2019-03-24T18:45:38.973Z,20.07
2019-03-24T18:48:09.107Z,15.30
2019-03-24T18:50:38.727Z,19.77
2019-03-24T18:53:08.335Z,19.60
2019-03-24T18:55:38.013Z,19.63
2019-03-24T18:58:07.625Z,17.53
2019-03-24T19:00:37.259Z,22.77
2019-03-24T19:03:06.876Z,20.13
2019-03-24T19:05:36.515Z,22.27
2019-03-24T19:08:06.126Z,17.60
2019-03-24T19:10:35.839Z,14.87
2019-03-24T19:13:06.103Z,18.00
2019-03-24T19:15:37.451Z,15.97
2019-03-24T19:18:07.307Z,15.13
2019-03-24T19:20:36.924Z,13.03
2019-03-24T19:23:06.588Z,17.97
2019-03-24T19:25:36.224Z,18.87
2019-03-24T19:28:05.899Z,17.47
2019-03-24T19:30:38.512Z,14.73
2019-03-24T19:33:08.389Z,14.60
2019-03-24T19:35:38.327Z,19.57
2019-03-24T19:38:08.056Z,12.27
2019-03-24T19:40:37.826Z,13.30
2019-03-24T19:43:07.457Z,17.83
2019-03-24T19:45:37.050Z,19.77
2019-03-24T19:48:06.988Z,13.47
2019-03-24T19:50:36.744Z,15.63
2019-03-24T19:53:06.617Z,20.33
2019-03-24T19:55:36.286Z,11.97
2019-03-24T19:58:06.128Z,17.67
2019-03-24T20:00:35.762Z,14.07
2019-03-24T20:03:05.668Z,15.50
2019-03-24T20:05:35.335Z,13.57
2019-03-24T20:08:05.222Z,17.77
2019-03-24T20:10:34.815Z,17.50
2019-03-24T20:13:04.756Z,15.17
2019-03-24T20:15:34.372Z,18.90
2019-03-24T20:18:04.005Z,19.70
2019-03-24T20:20:33.692Z,16.40
2019-03-24T20:23:03.318Z,16.53
2019-03-24T20:25:32.932Z,16.27
2019-03-24T20:28:02.536Z,21.07
2019-03-24T20:30:32.155Z,18.67
2019-03-24T20:33:01.772Z,17.37
2019-03-24T20:35:31.366Z,14.57
2019-03-24T20:38:01.091Z,17.23
2019-03-24T20:40:30.678Z,13.57
2019-03-24T20:43:00.410Z,16.70
2019-03-24T20:45:29.994Z,14.60
2019-03-24T20:47:59.721Z,14.70
2019-03-24T20:50:29.317Z,18.70
2019-03-24T20:53:04.098Z,16.90
2019-03-24T20:55:30.256Z,19.33
2019-03-24T20:57:59.882Z,14.33
2019-03-24T21:00:37.376Z,15.93
2019-03-24T21:03:09.003Z,15.53
2019-03-24T21:05:38.689Z,15.27
2019-03-24T21:08:08.620Z,15.63
2019-03-24T21:10:38.407Z,20.03
2019-03-24T21:13:08.098Z,21.30
2019-03-24T21:15:37.777Z,18.43
2019-03-24T21:18:07.390Z,15.93
2019-03-24T21:20:36.991Z,20.60
2019-03-24T21:23:06.688Z,15.97
2019-03-24T21:25:36.279Z,15.07
2019-03-24T21:28:06.340Z,20.10
2019-03-24T21:30:39.210Z,16.13
2019-03-24T21:33:09.119Z,15.60
2019-03-24T21:35:38.748Z,15.80
2019-03-24T21:38:08.603Z,16.33
2019-03-24T21:40:38.291Z,19.47
2019-03-24T21:43:07.910Z,17.70
2019-03-24T21:45:37.605Z,19.63
2019-03-24T21:48:07.435Z,16.33
2019-03-24T21:50:37.080Z,16.73
2019-03-24T21:53:06.791Z,20.57
2019-03-24T21:55:36.406Z,16.63
2019-03-24T21:58:06.233Z,16.93
2019-03-24T22:00:37.577Z,16.83
2019-03-24T22:03:07.578Z,15.97
2019-03-24T22:05:37.506Z,17.37
2019-03-24T22:08:07.365Z,18.17
2019-03-24T22:10:37.982Z,14.27
2019-03-24T22:13:07.641Z,15.70
2019-03-24T22:15:37.322Z,15.80
2019-03-24T22:18:07.350Z,16.40
2019-03-24T22:20:48.228Z,15.43
2019-03-24T22:23:08.421Z,15.27
2019-03-24T22:25:38.042Z,16.93
2019-03-24T22:28:07.633Z,14.47
2019-03-24T22:30:37.324Z,13.30
2019-03-24T22:33:06.963Z,14.37
2019-03-24T22:35:36.577Z,16.57
2019-03-24T22:38:06.339Z,14.17
2019-03-24T22:40:35.934Z,15.60
2019-03-24T22:43:05.858Z,15.93
2019-03-24T22:45:35.846Z,16.60
2019-03-24T22:48:05.687Z,15.63
2019-03-24T22:50:35.283Z,13.47
2019-03-24T22:53:04.937Z,12.07
2019-03-24T22:55:34.626Z,15.20
2019-03-24T22:58:04.222Z,15.20
2019-03-24T23:00:53.557Z,15.50
2019-03-24T23:03:25.271Z,16.13
2019-03-24T23:05:55.227Z,13.60
2019-03-24T23:08:24.818Z,16.30
2019-03-24T23:10:54.427Z,15.97
2019-03-24T23:13:24.035Z,17.30
2019-03-24T23:15:53.649Z,16.97
2019-03-24T23:18:23.311Z,13.07
2019-03-24T23:20:53.066Z,16.43
2019-03-24T23:23:22.653Z,18.87
2019-03-24T23:25:52.344Z,12.53
2019-03-24T23:28:21.929Z,14.10
2019-03-24T23:30:51.615Z,17.70
2019-03-24T23:33:21.231Z,15.30
2019-03-24T23:35:50.817Z,14.13
2019-03-24T23:38:20.504Z,15.53
2019-03-24T23:40:50.090Z,15.97
2019-03-24T23:43:19.774Z,15.80
2019-03-24T23:45:49.357Z,18.93
2019-03-24T23:48:18.973Z,16.47
2019-03-24T23:50:48.738Z,16.60
2019-03-24T23:53:18.361Z,12.70
2019-03-24T23:55:47.952Z,14.47
2019-03-24T23:58:17.670Z,15.33
